Time;durP1;ratioP1;P1;durP2;ratioP2;P2;SDS_P1;SDS_P2;PMS_P1;PMS_P2;Temp;Humidity;BMP_temperature;BMP_pressure;BME280_temperature;BME280_humidity;BME280_pressure;Samples;Min_cycle;Max_cycle;Signal;HPM_P1;HPM_P2
2022/02/14 00:00:53;;;;;;;9.90;3.47;;;;;;;10.27;74.35;99926.16;4994052;28;20458;-43
2022/02/14 00:03:21;;;;;;;8.25;3.50;;;;;;;10.47;75.11;99920.56;4994672;28;20544;-47
2022/02/14 00:05:49;;;;;;;8.93;3.25;;;;;;;10.39;73.93;99918.44;4994765;28;20054;-44
2022/02/14 00:08:17;;;;;;;7.45;3.30;;;;;;;10.20;73.85;99915.66;4977693;28;20050;-46
2022/02/14 00:10:44;;;;;;;9.02;3.33;;;;;;;10.33;74.42;99916.91;4994089;28;20050;-45
2022/02/14 00:13:12;;;;;;;8.05;2.90;;;;;;;10.31;75.24;99909.00;4977166;28;20055;-45
2022/02/14 00:15:41;;;;;;;9.18;3.35;;;;;;;10.26;73.49;99919.13;4976788;28;20105;-45
2022/02/14 00:18:09;;;;;;;9.43;3.20;;;;;;;10.36;74.17;99916.31;4994293;28;20050;-46
2022/02/14 00:20:37;;;;;;;7.95;3.47;;;;;;;10.44;73.94;99907.53;4976559;28;20042;-46
2022/02/14 00:23:05;;;;;;;7.82;3.40;;;;;;;10.35;74.58;99911.97;4994107;28;20082;-46
2022/02/14 00:25:32;;;;;;;9.02;3.50;;;;;;;10.26;73.73;99908.22;4994094;28;20129;-48
2022/02/14 00:28:00;;;;;;;7.88;3.25;;;;;;;10.30;74.33;99892.97;4993663;28;20164;-45
2022/02/14 00:30:29;;;;;;;9.35;3.25;;;;;;;10.24;73.87;99906.59;4993233;28;20050;-46
2022/02/14 00:32:57;;;;;;;7.55;3.03;;;;;;;10.20;73.85;99891.94;4976496;28;20046;-48
2022/02/14 00:35:25;;;;;;;6.22;2.83;;;;;;;10.21;73.33;99888.13;4994090;28;20042;-46
2022/02/14 00:37:53;;;;;;;6.82;3.22;;;;;;;10.19;73.38;99889.50;4993860;28;20047;-46
2022/02/14 00:40:21;;;;;;;7.25;2.67;;;;;;;10.16;74.70;99877.28;4976324;28;20078;-46
2022/02/14 00:42:50;;;;;;;8.02;3.20;;;;;;;10.16;74.66;99882.72;4993410;28;20137;-45
2022/02/14 00:45:17;;;;;;;5.35;2.72;;;;;;;10.18;76.61;99872.38;4960565;28;20082;-47
2022/02/14 00:47:45;;;;;;;6.32;2.75;;;;;;;10.46;74.85;99869.91;4994902;28;20069;-47
2022/02/14 00:50:13;;;;;;;4.55;2.47;;;;;;;10.37;75.67;99868.94;4994727;28;20085;-45
2022/02/14 00:52:41;;;;;;;9.10;3.33;;;;;;;10.37;74.40;99863.50;4976468;28;20046;-47
2022/02/14 00:55:14;;;;;;;5.38;2.70;;;;;;;10.32;74.50;99874.41;4957114;28;20050;-45
2022/02/14 00:57:47;;;;;;;5.97;3.05;;;;;;;10.31;74.35;99861.91;4973913;28;20063;-43
2022/02/14 01:00:15;;;;;;;7.65;3.13;;;;;;;10.32;73.50;99864.38;4978876;28;20073;-45
2022/02/14 01:02:44;;;;;;;7.15;2.60;;;;;;;10.29;74.75;99848.59;4993562;28;20042;-44
2022/02/14 01:05:12;;;;;;;6.00;2.78;;;;;;;10.31;74.44;99840.94;4993714;28;20046;-44
2022/02/14 01:07:40;;;;;;;7.28;2.65;;;;;;;10.22;74.68;99840.75;4976503;28;20068;-45
2022/02/14 01:10:10;;;;;;;8.50;2.80;;;;;;;10.09;74.08;99838.72;4993611;28;20042;-46
2022/02/14 01:12:40;;;;;;;7.03;2.63;;;;;;;10.11;73.59;99831.06;4993633;28;20137;-45
2022/02/14 01:15:09;;;;;;;4.43;2.50;;;;;;;10.11;74.63;99831.06;4993708;28;20097;-46
2022/02/14 01:17:39;;;;;;;8.50;3.20;;;;;;;9.99;74.60;99823.31;4977054;28;20048;-46
2022/02/14 01:20:10;;;;;;;5.38;2.58;;;;;;;9.97;74.96;99820.06;4976215;28;20052;-45
2022/02/14 01:22:38;;;;;;;9.00;2.88;;;;;;;10.05;73.77;99825.97;4993590;28;20038;-47
2022/02/14 01:25:06;;;;;;;6.95;2.80;;;;;;;9.93;73.14;99812.75;4993436;28;20043;-44
2022/02/14 01:27:34;;;;;;;6.45;2.70;;;;;;;10.13;75.28;99806.28;4976239;28;20043;-46
2022/02/14 01:30:05;;;;;;;7.35;2.78;;;;;;;10.12;75.28;99800.03;4993445;28;20050;-44
2022/02/14 01:32:33;;;;;;;9.77;2.92;;;;;;;10.11;73.59;99803.84;4992947;28;20041;-44
2022/02/14 01:35:02;;;;;;;5.63;2.20;;;;;;;10.05;75.63;99793.31;4993916;28;20090;-45
2022/02/14 01:37:32;;;;;;;5.15;2.35;;;;;;;10.05;75.30;99799.56;4993118;28;20053;-43
2022/02/14 01:40:00;;;;;;;7.07;2.60;;;;;;;10.08;75.01;99788.13;4977628;28;20121;-45
2022/02/14 01:42:28;;;;;;;7.70;2.90;;;;;;;9.99;74.42;99778.97;4996499;28;20046;-44
2022/02/14 01:44:56;;;;;;;11.07;2.97;;;;;;;9.99;74.75;99776.25;4997018;28;20042;-44
2022/02/14 01:47:25;;;;;;;9.48;2.70;;;;;;;9.99;75.05;99774.31;4996944;28;20038;-45
2022/02/14 01:49:54;;;;;;;6.30;2.50;;;;;;;9.88;73.70;99764.66;4997007;28;20050;-47
2022/02/14 01:52:22;;;;;;;4.82;2.40;;;;;;;9.95;75.56;99756.94;4996265;28;20141;-46
2022/02/14 01:54:51;;;;;;;6.30;2.63;;;;;;;9.93;75.25;99750.16;4996956;28;20054;-45
2022/02/14 01:57:19;;;;;;;6.47;2.80;;;;;;;10.00;74.60;99756.06;4979417;28;20078;-46
2022/02/14 01:59:48;;;;;;;5.20;2.33;;;;;;;9.97;74.63;99743.06;4979476;28;20054;-49
2022/02/14 02:02:16;;;;;;;8.35;2.72;;;;;;;9.96;73.99;99746.91;4979205;28;20038;-44
2022/02/14 02:04:47;;;;;;;8.40;2.90;;;;;;;10.08;74.30;99739.13;4996856;28;20065;-45
2022/02/14 02:07:15;;;;;;;3.70;2.17;;;;;;;10.08;76.10;99728.22;4996497;28;20046;-44
2022/02/14 02:09:44;;;;;;;7.90;2.60;;;;;;;10.23;74.71;99736.19;4997013;28;20043;-44
2022/02/14 02:12:22;;;;;;;5.38;2.30;;;;;;;10.36;74.23;99731.16;4963101;28;20050;-48
2022/02/14 02:14:59;;;;;;;7.00;3.10;;;;;;;10.33;73.95;99723.59;4996800;28;20051;-46
2022/02/14 02:17:38;;;;;;;6.03;2.65;;;;;;;10.50;74.29;99721.16;4997248;28;20085;-46
2022/02/14 02:20:10;;;;;;;3.20;1.83;;;;;;;10.42;74.51;99719.09;4997556;28;20050;-46
2022/02/14 02:22:38;;;;;;;6.55;2.78;;;;;;;10.42;74.17;99710.94;4998438;28;20045;-45
2022/02/14 02:25:06;;;;;;;5.18;2.40;;;;;;;10.32;73.95;99697.44;4979422;28;20050;-48
2022/02/14 02:27:34;;;;;;;4.18;2.30;;;;;;;10.42;75.18;99702.75;4996432;28;20056;-45
2022/02/14 02:30:06;;;;;;;9.82;3.28;;;;;;;10.48;72.99;99687.94;4995897;28;20051;-43
2022/02/14 02:32:34;;;;;;;5.82;2.20;;;;;;;10.47;72.29;99689.06;4996359;28;20077;-44
2022/02/14 02:35:03;;;;;;;4.15;2.20;;;;;;;10.62;73.78;99694.28;4996135;28;20078;-45
2022/02/14 02:37:31;;;;;;;4.43;2.17;;;;;;;10.66;74.08;99684.41;4995751;28;20129;-45
2022/02/14 02:39:59;;;;;;;6.07;2.50;;;;;;;10.77;73.80;99686.97;4995896;28;20046;-45
2022/02/14 02:42:27;;;;;;;7.28;2.42;;;;;;;10.74;72.49;99679.41;4995871;28;20122;-45
2022/02/14 02:44:55;;;;;;;5.70;2.42;;;;;;;10.75;72.29;99681.00;4978726;28;20042;-45
2022/02/14 02:47:24;;;;;;;5.10;2.40;;;;;;;10.74;71.62;99682.13;4978678;28;20050;-45
2022/02/14 02:49:52;;;;;;;6.32;2.10;;;;;;;10.66;71.75;99676.25;4978571;28;20100;-45
2022/02/14 02:52:21;;;;;;;5.00;2.05;;;;;;;10.61;73.65;99676.31;4994856;28;20046;-44
2022/02/14 02:54:49;;;;;;;4.07;2.25;;;;;;;10.59;73.53;99667.63;4962375;28;20092;-47
2022/02/14 02:57:17;;;;;;;8.43;2.88;;;;;;;10.57;73.14;99666.31;4995668;28;20093;-46
2022/02/14 02:59:45;;;;;;;7.07;2.53;;;;;;;10.55;72.87;99666.59;4995537;28;20054;-47
2022/02/14 03:02:13;;;;;;;11.75;2.70;;;;;;;10.62;72.28;99664.31;4995578;28;20053;-49
2022/02/14 03:04:41;;;;;;;5.03;2.28;;;;;;;10.61;72.88;99665.44;4995430;28;20053;-45
2022/02/14 03:07:09;;;;;;;6.05;2.42;;;;;;;10.71;72.01;99669.09;4995611;28;20073;-45
2022/02/14 03:09:37;;;;;;;3.53;2.00;;;;;;;10.88;72.79;99650.28;4995310;28;20049;-45
2022/02/14 03:12:05;;;;;;;5.97;2.53;;;;;;;10.85;72.37;99651.69;4995116;28;20042;-46
2022/02/14 03:14:33;;;;;;;6.70;2.42;;;;;;;10.80;71.85;99640.03;4995229;28;20097;-44
2022/02/14 03:17:01;;;;;;;4.45;2.17;;;;;;;10.97;71.62;99634.06;4995427;28;20065;-45
2022/02/14 03:19:28;;;;;;;6.82;2.25;;;;;;;10.93;71.41;99641.22;4994989;28;20082;-45
2022/02/14 03:21:56;;;;;;;4.30;1.92;;;;;;;10.93;71.67;99630.31;4994818;28;20046;-46
2022/02/14 03:24:24;;;;;;;5.63;2.22;;;;;;;10.83;71.31;99629.38;4995242;28;20076;-45
2022/02/14 03:26:52;;;;;;;5.82;2.40;;;;;;;10.95;70.46;99626.16;4994903;28;20048;-45
2022/02/14 03:29:20;;;;;;;8.27;2.33;;;;;;;10.91;70.77;99624.34;4995171;28;20058;-45
2022/02/14 03:31:50;;;;;;;5.88;2.50;;;;;;;10.90;70.24;99623.53;4994775;28;20062;-46
2022/02/14 03:34:18;;;;;;;6.15;2.60;;;;;;;10.74;70.64;99623.00;4994553;28;20082;-45
2022/02/14 03:36:46;;;;;;;3.30;1.95;;;;;;;10.78;72.25;99617.75;4995078;28;20420;-46
2022/02/14 03:39:14;;;;;;;5.80;1.98;;;;;;;10.79;72.20;99613.91;4977797;28;20085;-45
2022/02/14 03:41:42;;;;;;;5.75;2.70;;;;;;;10.74;70.88;99614.00;4995086;28;20043;-44
2022/02/14 03:44:10;;;;;;;5.80;2.92;;;;;;;10.64;71.22;99609.53;4995118;28;20058;-44
2022/02/14 03:46:39;;;;;;;5.03;2.22;;;;;;;10.71;70.89;99603.72;4995313;28;20049;-46
2022/02/14 03:49:09;;;;;;;7.43;2.72;;;;;;;10.59;71.61;99607.72;4976902;28;20060;-46
2022/02/14 03:51:37;;;;;;;6.05;2.45;;;;;;;10.56;72.89;99612.94;4977819;28;20057;-42
2022/02/14 03:54:05;;;;;;;5.28;2.15;;;;;;;10.60;72.27;99611.25;4975252;28;20050;-41
2022/02/14 03:56:32;;;;;;;2.53;2.20;;;;;;;10.62;71.80;99603.59;4974924;28;20053;-41
2022/02/14 03:59:01;;;;;;;6.40;2.20;;;;;;;10.59;72.07;99593.28;4976794;28;20046;-42
2022/02/14 04:01:28;;;;;;;6.57;2.30;;;;;;;10.62;71.19;99606.31;4994662;28;20077;-41
2022/02/14 04:03:56;;;;;;;5.55;2.50;;;;;;;10.61;70.40;99594.59;4993779;28;20042;-41
2022/02/14 04:06:24;;;;;;;5.03;2.30;;;;;;;10.61;72.47;99588.34;4994654;28;20141;-42
2022/02/14 04:08:51;;;;;;;4.60;2.20;;;;;;;10.74;71.81;99593.03;4994415;28;20046;-43
2022/02/14 04:11:19;;;;;;;5.15;2.17;;;;;;;10.73;72.19;99590.63;4994665;28;20042;-44
2022/02/14 04:13:46;;;;;;;5.10;2.40;;;;;;;10.62;71.66;99585.31;4994514;28;20046;-42
2022/02/14 04:16:14;;;;;;;6.40;2.55;;;;;;;10.60;72.10;99587.53;4994255;28;20129;-42
2022/02/14 04:18:42;;;;;;;4.90;2.50;;;;;;;10.61;71.16;99586.44;4993929;28;20409;-46
2022/02/14 04:21:09;;;;;;;6.10;2.60;;;;;;;10.91;71.22;99597.91;4994307;28;20143;-46
2022/02/14 04:23:37;;;;;;;7.07;2.55;;;;;;;10.83;70.76;99584.97;4976932;28;20062;-44
2022/02/14 04:26:05;;;;;;;4.35;2.08;;;;;;;10.81;71.71;99596.16;4994378;28;20109;-44
2022/02/14 04:28:33;;;;;;;5.13;2.10;;;;;;;10.90;71.32;99585.38;4976875;28;20042;-46
2022/02/14 04:31:00;;;;;;;4.25;2.13;;;;;;;10.99;71.02;99583.59;4993595;28;20038;-45
2022/02/14 04:33:28;;;;;;;4.45;1.90;;;;;;;10.81;70.74;99584.47;4976761;28;20046;-45
2022/02/14 04:35:56;;;;;;;4.80;2.20;;;;;;;10.87;71.22;99584.06;4994097;28;20050;-46
2022/02/14 04:38:24;;;;;;;6.13;2.25;;;;;;;10.86;71.21;99589.81;4993580;28;20038;-45
2022/02/14 04:40:53;;;;;;;7.18;2.17;;;;;;;10.80;72.48;99594.56;4993894;28;20050;-44
2022/02/14 04:43:20;;;;;;;4.78;2.08;;;;;;;10.80;71.83;99591.84;4993809;28;20073;-43
2022/02/14 04:45:48;;;;;;;4.65;2.40;;;;;;;10.92;70.81;99587.78;4993782;28;20079;-45
2022/02/14 04:48:16;;;;;;;2.55;1.95;;;;;;;10.90;71.25;99585.38;4993637;28;20042;-48
2022/02/14 04:50:45;;;;;;;7.35;2.40;;;;;;;11.02;70.52;99582.97;4993761;28;20046;-45
2022/02/14 04:53:13;;;;;;;4.80;1.92;;;;;;;10.89;71.22;99589.22;4993784;28;20090;-46
2022/02/14 04:55:41;;;;;;;3.50;2.40;;;;;;;10.82;70.66;99577.88;4993456;28;20054;-45
2022/02/14 04:58:12;;;;;;;5.93;2.22;;;;;;;10.70;70.94;99572.13;4993415;28;20058;-46
2022/02/14 05:00:40;;;;;;;9.25;2.65;;;;;;;10.66;71.72;99564.56;4993728;28;20055;-47
2022/02/14 05:03:08;;;;;;;2.95;1.70;;;;;;;10.71;73.28;99566.38;4993627;28;20038;-44
2022/02/14 05:05:36;;;;;;;7.03;2.45;;;;;;;10.95;71.07;99566.22;4993526;28;20045;-46
2022/02/14 05:08:05;;;;;;;2.05;1.38;;;;;;;10.99;72.43;99559.06;4993313;28;20053;-45
2022/02/14 05:10:33;;;;;;;4.28;1.63;;;;;;;11.02;70.79;99558.44;4993496;28;20053;-47
2022/02/14 05:13:01;;;;;;;5.68;2.47;;;;;;;10.87;71.57;99570.44;4993572;28;20045;-47
2022/02/14 05:15:29;;;;;;;5.82;2.20;;;;;;;10.95;70.67;99566.22;4995242;28;20133;-46
2022/02/14 05:17:57;;;;;;;3.30;1.63;;;;;;;10.87;72.49;99562.28;4998335;28;20046;-47
2022/02/14 05:20:24;;;;;;;6.38;2.35;;;;;;;10.88;71.01;99571.25;4965124;28;20053;-48
2022/02/14 05:22:52;;;;;;;3.80;1.77;;;;;;;10.82;71.70;99567.00;4980495;28;20103;-46
2022/02/14 05:25:20;;;;;;;3.25;2.08;;;;;;;10.93;72.72;99568.44;4980396;28;20050;-47
2022/02/14 05:27:48;;;;;;;3.20;1.65;;;;;;;10.84;72.87;99575.69;4997003;28;20043;-45
2022/02/14 05:30:15;;;;;;;4.13;1.92;;;;;;;10.84;71.27;99564.78;4997667;28;20046;-45
2022/02/14 05:32:43;;;;;;;4.03;2.08;;;;;;;10.93;71.50;99571.16;4997515;28;20130;-46
2022/02/14 05:35:11;;;;;;;3.92;1.80;;;;;;;10.88;71.81;99568.53;4997208;28;20050;-44
2022/02/14 05:37:39;;;;;;;3.17;1.85;;;;;;;11.00;71.62;99562.59;4996685;28;20078;-44
2022/02/14 05:40:08;;;;;;;3.80;1.92;;;;;;;10.88;71.55;99568.53;4997239;28;20133;-44
2022/02/14 05:42:36;;;;;;;5.03;2.20;;;;;;;10.82;72.62;99564.28;4980128;28;20077;-44
2022/02/14 05:45:04;;;;;;;4.57;2.03;;;;;;;10.81;71.71;99573.56;4979961;28;20102;-44
2022/02/14 05:47:33;;;;;;;4.03;1.63;;;;;;;10.88;72.73;99565.81;4996763;28;20038;-44
2022/02/14 05:50:00;;;;;;;4.15;2.25;;;;;;;10.76;72.21;99562.75;4996864;28;20046;-44
2022/02/14 05:52:28;;;;;;;3.45;1.80;;;;;;;10.62;72.89;99574.44;4980026;28;20057;-46
2022/02/14 05:54:56;;;;;;;4.18;1.98;;;;;;;10.63;73.95;99565.16;4997104;28;20054;-46
2022/02/14 05:57:24;;;;;;;4.38;2.17;;;;;;;10.68;73.19;99572.44;4996706;28;20084;-45
2022/02/14 05:59:51;;;;;;;3.92;1.95;;;;;;;10.61;73.06;99567.38;4997221;28;20069;-44
2022/02/14 06:02:20;;;;;;;4.45;2.20;;;;;;;10.66;72.85;99570.00;4979653;28;20086;-43
2022/02/14 06:04:47;;;;;;;5.38;1.83;;;;;;;10.65;73.26;99568.41;4979391;28;20046;-45
2022/02/14 06:07:15;;;;;;;1.52;1.40;;;;;;;10.73;73.42;99568.81;4996642;28;20049;-47
2022/02/14 06:09:43;;;;;;;3.47;1.90;;;;;;;10.73;73.45;99568.81;4996300;28;20054;-43
2022/02/14 06:12:11;;;;;;;4.00;2.10;;;;;;;10.66;73.93;99567.28;4996594;28;20046;-47
2022/02/14 06:14:39;;;;;;;6.95;2.15;;;;;;;10.65;73.85;99579.28;4996436;28;20046;-46
2022/02/14 06:17:07;;;;;;;3.25;1.80;;;;;;;10.77;73.90;99575.25;4997035;28;20046;-46
2022/02/14 06:19:34;;;;;;;2.53;1.90;;;;;;;10.75;73.72;99581.03;4996007;28;20050;-44
2022/02/14 06:22:02;;;;;;;4.82;2.13;;;;;;;10.68;73.97;99585.22;4996338;28;20046;-46
2022/02/14 06:24:32;;;;;;;5.75;2.10;;;;;;;10.73;73.67;99585.16;4996328;28;20077;-45
2022/02/14 06:27:00;;;;;;;6.05;1.80;;;;;;;10.90;74.19;99576.41;4995011;28;20058;-46
2022/02/14 06:29:28;;;;;;;3.28;1.70;;;;;;;11.14;73.12;99585.22;4995900;28;20038;-46
2022/02/14 06:31:59;;;;;;;3.85;1.90;;;;;;;10.95;72.37;99585.28;4996103;28;20050;-46
2022/02/14 06:34:27;;;;;;;4.38;2.00;;;;;;;10.88;73.41;99582.94;4995992;28;20042;-47
2022/02/14 06:36:55;;;;;;;4.95;2.05;;;;;;;10.89;72.87;99589.22;4978716;28;20057;-46
2022/02/14 06:39:25;;;;;;;3.10;1.90;;;;;;;10.82;73.34;99583.34;4995747;28;20058;-45
2022/02/14 06:41:53;;;;;;;3.17;1.92;;;;;;;10.96;72.80;99584.16;4995587;28;20053;-44
2022/02/14 06:44:21;;;;;;;4.28;2.17;;;;;;;10.87;72.77;99591.41;4996038;28;20046;-48
2022/02/14 06:46:49;;;;;;;4.95;1.80;;;;;;;10.84;73.51;99601.00;4997091;28;20053;-46
2022/02/14 06:49:17;;;;;;;3.75;1.50;;;;;;;10.94;74.09;99591.84;4979029;28;20046;-45
2022/02/14 06:51:46;;;;;;;3.13;1.63;;;;;;;11.29;72.38;99595.00;4978574;28;20058;-45
2022/02/14 06:54:14;;;;;;;4.88;2.45;;;;;;;11.33;70.97;99596.03;4995765;28;20042;-45
2022/02/14 06:56:42;;;;;;;4.55;1.95;;;;;;;11.12;72.30;99603.78;4995567;28;20057;-48
2022/02/14 06:59:10;;;;;;;4.82;2.33;;;;;;;11.33;71.54;99606.94;4995138;28;20050;-46
2022/02/14 07:01:40;;;;;;;5.22;2.22;;;;;;;11.16;71.76;99606.69;4978687;28;20046;-46
2022/02/14 07:04:10;;;;;;;3.72;2.03;;;;;;;11.12;72.69;99613.88;4978616;28;20101;-45
2022/02/14 07:06:40;;;;;;;5.88;1.85;;;;;;;12.09;69.72;99620.09;4995590;28;20046;-46
2022/02/14 07:09:08;;;;;;;4.55;2.13;;;;;;;12.46;67.83;99621.69;4995427;28;20066;-46
2022/02/14 07:11:36;;;;;;;3.13;1.80;;;;;;;12.09;68.70;99625.56;4995128;28;20129;-45
2022/02/14 07:14:04;;;;;;;5.03;1.85;;;;;;;12.29;68.94;99624.28;4995394;28;20056;-44
2022/02/14 07:16:36;;;;;;;5.28;2.30;;;;;;;12.69;67.13;99630.69;4995129;28;20047;-47
2022/02/14 07:19:04;;;;;;;6.53;2.05;;;;;;;12.34;68.49;99626.91;4288890;28;10000166;-46
2022/02/14 07:21:31;;;;;;;5.85;1.90;;;;;;;12.45;67.99;99627.47;4992314;28;20050;-47
2022/02/14 07:23:59;;;;;;;5.65;2.13;;;;;;;12.50;68.09;99638.25;4991859;28;20046;-47
2022/02/14 07:26:27;;;;;;;5.93;1.73;;;;;;;12.71;67.17;99630.38;4991937;28;20070;-45
2022/02/14 07:28:55;;;;;;;4.40;1.60;;;;;;;12.74;66.87;99640.69;4974243;28;20109;-47
2022/02/14 07:31:23;;;;;;;2.85;1.95;;;;;;;12.89;66.33;99637.59;4991222;28;20057;-48
2022/02/14 07:33:51;;;;;;;4.10;1.80;;;;;;;12.74;66.71;99646.97;4991812;28;20049;-47
2022/02/14 07:36:21;;;;;;;3.70;1.90;;;;;;;12.79;66.78;99654.22;4991755;28;20148;-47
2022/02/14 07:38:49;;;;;;;5.68;1.55;;;;;;;12.22;69.57;99645.75;4991342;28;20141;-47
2022/02/14 07:41:17;;;;;;;4.68;2.10;;;;;;;12.50;68.32;99657.38;4991679;28;20097;-47
2022/02/14 07:43:45;;;;;;;8.13;2.08;;;;;;;12.28;69.63;99661.72;4991384;28;20141;-47
2022/02/14 07:46:14;;;;;;;2.20;1.52;;;;;;;12.49;68.64;99669.44;4991467;28;20756;-45
2022/02/14 07:48:46;;;;;;;4.18;1.92;;;;;;;12.19;69.96;99674.47;4991414;28;20061;-48
2022/02/14 07:51:18;;;;;;;8.38;2.45;;;;;;;12.60;68.86;99680.94;4991380;28;20050;-48
2022/02/14 07:53:46;;;;;;;2.25;1.35;;;;;;;12.92;67.67;99677.97;4991354;28;20061;-49
2022/02/14 07:56:14;;;;;;;4.15;2.22;;;;;;;12.67;68.74;99684.84;4991306;28;20052;-47
2022/02/14 07:58:49;;;;;;;6.05;2.05;;;;;;;12.22;70.80;99690.25;4992079;28;20062;-46
2022/02/14 08:01:18;;;;;;;4.88;2.13;;;;;;;12.66;69.51;99688.72;4994505;28;20109;-46
2022/02/14 08:03:46;;;;;;;6.40;2.33;;;;;;;12.45;70.18;99704.75;4994167;28;20093;-47
2022/02/14 08:06:31;;;;;;;6.95;2.78;;;;;;;12.62;70.28;99706.03;4994436;28;20054;-46
2022/02/14 08:08:59;;;;;;;2.67;1.70;;;;;;;12.35;69.74;99718.66;4961651;28;20050;-48
2022/02/14 08:11:27;;;;;;;5.85;2.60;;;;;;;11.82;73.15;99736.38;4994546;28;20050;-47
2022/02/14 08:13:55;;;;;;;5.05;2.25;;;;;;;11.74;75.31;99734.34;4994293;28;20043;-44
2022/02/14 08:16:22;;;;;;;5.60;2.38;;;;;;;11.29;79.48;99761.34;4995878;28;20050;-46
2022/02/14 08:18:50;;;;;;;6.85;2.80;;;;;;;10.90;82.62;99765.25;4978010;28;20125;-46
2022/02/14 08:21:18;;;;;;;6.97;2.60;;;;;;;10.73;84.00;99757.59;4994398;28;20050;-48
2022/02/14 08:23:47;;;;;;;5.82;2.50;;;;;;;10.52;87.49;99781.59;4994253;28;20052;-46
2022/02/14 08:26:15;;;;;;;5.90;2.40;;;;;;;10.40;89.04;99778.50;4994262;28;20046;-48
2022/02/14 08:28:44;;;;;;;5.45;2.50;;;;;;;10.30;90.39;99781.34;4993691;28;20058;-44
2022/02/14 08:31:12;;;;;;;7.80;2.38;;;;;;;10.27;91.65;99779.16;4994120;28;20137;-46
2022/02/14 08:33:40;;;;;;;3.22;2.17;;;;;;;10.22;92.79;99783.59;4994347;28;20046;-47
2022/02/14 08:36:14;;;;;;;6.00;2.40;;;;;;;10.14;93.94;99780.69;4993734;28;20054;-46
2022/02/14 08:38:41;;;;;;;6.53;2.53;;;;;;;10.14;93.83;99789.66;4994573;28;20054;-48
2022/02/14 08:41:09;;;;;;;3.40;2.30;;;;;;;10.12;94.38;99796.50;4976322;28;20046;-46
2022/02/14 08:43:38;;;;;;;6.18;2.50;;;;;;;10.15;93.68;99799.47;4976375;28;20047;-47
2022/02/14 08:46:06;;;;;;;4.95;2.38;;;;;;;10.04;95.53;99803.38;4993068;28;20062;-48
2022/02/14 08:48:34;;;;;;;9.15;2.60;;;;;;;10.05;94.95;99798.75;4976230;28;20051;-46
2022/02/14 08:51:04;;;;;;;5.50;2.55;;;;;;;9.98;95.78;99804.53;4993533;28;20050;-46
2022/02/14 08:53:35;;;;;;;5.55;2.35;;;;;;;9.91;96.75;99809.50;4993162;28;20078;-45
2022/02/14 08:56:05;;;;;;;5.18;2.33;;;;;;;9.88;97.32;99823.69;4993611;28;20053;-45
2022/02/14 08:58:34;;;;;;;4.45;2.30;;;;;;;9.86;97.78;99831.34;4975944;28;20066;-47
2022/02/14 09:01:03;;;;;;;4.63;2.40;;;;;;;9.79;98.15;99829.78;4976488;28;20057;-47
2022/02/14 09:03:32;;;;;;;4.63;2.30;;;;;;;9.71;98.17;99838.53;4993204;28;20050;-47
2022/02/14 09:06:00;;;;;;;6.25;2.80;;;;;;;9.75;98.58;99838.78;4993678;28;20046;-47
2022/02/14 09:08:28;;;;;;;13.77;4.30;;;;;;;9.77;98.24;99842.84;4975538;28;20050;-45
2022/02/14 09:11:01;;;;;;;8.73;3.28;;;;;;;9.80;97.46;99839.53;4993508;28;20093;-44
2022/02/14 09:13:31;;;;;;;9.75;3.38;;;;;;;9.81;97.02;99846.63;4993248;28;20042;-47
2022/02/14 09:16:04;;;;;;;7.38;2.40;;;;;;;9.74;97.00;99857.03;4975693;28;20078;-47
2022/02/14 09:18:33;;;;;;;5.28;2.10;;;;;;;9.74;97.08;99869.78;4980423;28;20045;-47
2022/02/14 09:21:06;;;;;;;34.45;8.27;;;;;;;9.76;96.83;99870.31;4976324;28;20073;-46
2022/02/14 09:23:36;;;;;;;6.13;2.60;;;;;;;9.80;97.29;99874.91;4993095;28;20053;-46
2022/02/14 09:26:04;;;;;;;6.03;2.60;;;;;;;9.84;97.60;99866.16;4976346;28;20056;-46
2022/02/14 09:28:32;;;;;;;2.33;1.88;;;;;;;9.82;97.46;99872.72;4975965;28;20048;-46
2022/02/14 09:31:00;;;;;;;2.50;1.77;;;;;;;9.85;96.26;99871.34;4992909;28;20472;-46
2022/02/14 09:33:28;;;;;;;14.68;4.70;;;;;;;9.93;95.23;99878.91;4993252;28;20141;-47
2022/02/14 09:35:56;;;;;;;7.03;2.97;;;;;;;9.99;94.47;99871.47;4993288;28;20049;-47
2022/02/14 09:38:26;;;;;;;23.20;6.97;;;;;;;10.02;93.96;99881.78;4992891;28;20064;-47
2022/02/14 09:40:55;;;;;;;11.18;3.95;;;;;;;10.10;93.51;99874.91;4992319;28;20051;-46
2022/02/14 09:43:23;;;;;;;25.27;7.95;;;;;;;10.14;93.43;99879.47;4993113;28;20105;-47
2022/02/14 09:45:50;;;;;;;2.33;1.40;;;;;;;9.98;94.76;99886.16;4975763;28;20137;-46
2022/02/14 09:48:20;;;;;;;1.77;1.60;;;;;;;9.98;94.44;99894.34;4995727;28;20085;-46
2022/02/14 09:50:53;;;;;;;3.10;1.75;;;;;;;10.04;94.71;99893.19;4946331;28;20070;-46
2022/02/14 09:53:20;;;;;;;4.75;2.03;;;;;;;9.95;95.88;99898.44;4993331;28;20126;-49
2022/02/14 09:55:49;;;;;;;4.95;2.55;;;;;;;9.95;95.36;99897.63;4993117;28;20049;-47
2022/02/14 09:58:17;;;;;;;19.58;6.57;;;;;;;10.10;93.86;99902.13;4992647;28;20055;-47
2022/02/14 10:00:45;;;;;;;3.85;2.03;;;;;;;10.06;93.91;99901.09;4993389;28;20046;-46
2022/02/14 10:03:18;;;;;;;9.68;3.70;;;;;;;10.30;92.30;99901.16;4979391;28;20042;-48
2022/02/14 10:05:52;;;;;;;6.57;3.22;;;;;;;10.21;92.50;99901.72;4996579;28;20077;-47
2022/02/14 10:08:30;;;;;;;17.60;5.57;;;;;;;10.25;92.09;99912.88;4979517;28;20046;-46
2022/02/14 10:11:11;;;;;;;11.27;4.10;;;;;;;10.18;92.54;99915.91;4979243;28;20051;-46
2022/02/14 10:13:40;;;;;;;7.85;3.10;;;;;;;10.12;92.24;99919.78;4996669;28;20078;-46
2022/02/14 10:16:14;;;;;;;5.80;2.72;;;;;;;10.05;92.80;99918.50;4979739;28;20046;-47
2022/02/14 10:18:42;;;;;;;14.50;5.63;;;;;;;10.15;92.56;99915.66;4996278;28;20049;-45
2022/02/14 10:21:26;;;;;;;27.00;9.02;;;;;;;10.49;90.35;99915.63;4978934;28;20050;-47
2022/02/14 10:23:57;;;;;;;6.53;2.95;;;;;;;10.40;90.03;99920.09;4979072;28;20039;-47
2022/02/14 10:26:30;;;;;;;13.90;5.05;;;;;;;10.36;90.46;99935.38;4995666;28;20049;-47
2022/02/14 10:28:58;;;;;;;9.25;3.47;;;;;;;10.41;89.42;99935.31;4994989;28;20052;-46
2022/02/14 10:31:40;;;;;;;9.45;3.25;;;;;;;10.33;89.60;99944.13;4996254;28;20085;-47
2022/02/14 10:34:07;;;;;;;6.07;2.33;;;;;;;10.32;89.56;99939.75;4996095;28;20046;-47
2022/02/14 10:36:38;;;;;;;4.50;2.35;;;;;;;10.16;90.00;99956.22;4977218;28;20096;-48
2022/02/14 10:39:25;;;;;;;6.95;2.72;;;;;;;10.06;90.72;99959.03;4994611;28;20051;-46
2022/02/14 10:41:57;;;;;;;5.38;2.63;;;;;;;10.09;90.10;99957.66;4975175;28;20057;-47
2022/02/14 10:47:28;;;;;;;5.78;2.30;;;;;;;9.96;89.38;99970.03;4993201;28;20050;-46
2022/02/14 10:50:17;;;;;;;3.85;2.00;;;;;;;9.91;89.95;99975.47;4995189;28;20050;-48
2022/02/14 10:52:49;;;;;;;7.05;2.70;;;;;;;9.89;89.97;99983.94;4994718;28;20054;-47
2022/02/14 10:55:19;;;;;;;7.85;3.33;;;;;;;9.90;89.49;99987.47;4995158;28;20049;-44
2022/02/14 10:57:50;;;;;;;15.15;6.22;;;;;;;10.04;88.04;99983.00;4977238;28;20052;-47
2022/02/14 11:00:21;;;;;;;5.90;2.30;;;;;;;9.98;85.99;99984.13;4962717;28;20046;-44
2022/02/14 11:02:51;;;;;;;4.93;2.47;;;;;;;9.97;86.68;99985.25;4978055;28;20049;-45
2022/02/14 11:05:20;;;;;;;3.17;2.00;;;;;;;9.97;85.36;99987.97;4994615;28;20045;-47
2022/02/14 11:07:49;;;;;;;6.13;2.45;;;;;;;9.98;85.31;99984.13;4977072;28;20082;-49
2022/02/14 11:10:18;;;;;;;3.45;1.88;;;;;;;10.05;85.81;99994.69;4995260;28;20078;-46
2022/02/14 11:12:51;;;;;;;9.00;4.28;;;;;;;10.15;85.57;99990.00;4977264;28;20078;-47
2022/02/14 11:15:19;;;;;;;10.90;4.20;;;;;;;10.17;84.27;100004.16;4995251;28;20042;-47
2022/02/14 11:18:03;;;;;;;6.22;2.67;;;;;;;10.17;83.18;100004.16;4977774;28;20441;-46
2022/02/14 11:20:38;;;;;;;24.08;8.50;;;;;;;10.42;85.93;100010.47;4964084;28;20052;-44
2022/02/14 11:23:08;;;;;;;9.48;3.47;;;;;;;10.31;82.76;100014.38;4962377;28;20047;-47
2022/02/14 11:25:51;;;;;;;10.13;3.47;;;;;;;10.27;82.11;100010.56;4994518;28;20042;-46
2022/02/14 11:28:34;;;;;;;13.80;4.75;;;;;;;10.34;80.50;100016.53;4994713;28;20046;-47
2022/02/14 11:31:17;;;;;;;7.78;3.45;;;;;;;10.28;80.33;100017.66;4994489;28;20050;-46
2022/02/14 11:33:59;;;;;;;6.65;2.75;;;;;;;10.21;80.49;100016.06;4977040;28;20069;-46
2022/02/14 11:36:30;;;;;;;10.20;4.15;;;;;;;10.64;83.27;100016.25;4994603;28;20051;-46
2022/02/14 11:39:00;;;;;;;24.90;8.85;;;;;;;10.56;84.40;100016.88;4992169;28;20050;-43
2022/02/14 11:41:46;;;;;;;19.05;6.68;;;;;;;10.52;83.96;100010.38;4993880;28;20120;-46
2022/02/14 11:44:14;;;;;;;4.75;2.25;;;;;;;10.57;81.65;100012.25;4986255;28;20042;-44
2022/02/14 11:46:55;;;;;;;6.90;2.60;;;;;;;10.39;80.23;100008.31;4994113;28;20042;-45